Airports Romania Suceava Stefan cel Mare Airport

Suceava Stefan cel Mare Airport (LRSV / SCV)

Facts about Suceava Stefan cel Mare Airport

Name Suceava Stefan cel Mare Airport
City Suceava
Country Romania
ICAO code LRSV
IATA code SCV
Elevation 419.1000 meters (1375 feet)

Weather

METAR

Metar data retrieved Saturday, 20 July 2024 at 00:55 UTC (8 minutes ago)

LRSV 200030Z 33003KT CAVOK 20/14 Q1016

Live traffic

Navigraph Charts (account required)